sensor_id;sensor_type;location;lat;lon;timestamp;pressure;altitude;pressure_sealevel;temperature;humidity
46944;BME280;32678;43.852;25.952;2023-12-20T00:04:56;101457.28;;;7.17;71.57
46944;BME280;32678;43.852;25.952;2023-12-20T00:09:53;101455.72;;;6.91;71.48
46944;BME280;32678;43.852;25.952;2023-12-20T00:14:49;101447.31;;;6.41;72.63
46944;BME280;32678;43.852;25.952;2023-12-20T00:19:46;101446.31;;;6.68;72.87
46944;BME280;32678;43.852;25.952;2023-12-20T00:24:43;101447.44;;;6.20;73.63
46944;BME280;32678;43.852;25.952;2023-12-20T00:29:40;101451.56;;;6.62;73.09
46944;BME280;32678;43.852;25.952;2023-12-20T00:34:38;101441.47;;;5.81;75.78
46944;BME280;32678;43.852;25.952;2023-12-20T00:39:35;101431.09;;;5.66;76.88
46944;BME280;32678;43.852;25.952;2023-12-20T00:44:32;101424.13;;;5.88;76.75
46944;BME280;32678;43.852;25.952;2023-12-20T00:49:29;101415.44;;;5.81;76.70
46944;BME280;32678;43.852;25.952;2023-12-20T00:54:25;101410.25;;;5.74;77.36
46944;BME280;32678;43.852;25.952;2023-12-20T00:59:22;101412.06;;;5.18;79.97
46944;BME280;32678;43.852;25.952;2023-12-20T01:04:19;101402.56;;;5.17;80.33
46944;BME280;32678;43.852;25.952;2023-12-20T01:09:16;101383.41;;;5.55;78.81
46944;BME280;32678;43.852;25.952;2023-12-20T01:14:12;101383.31;;;5.82;77.83
46944;BME280;32678;43.852;25.952;2023-12-20T01:19:09;101374.63;;;5.97;77.00
46944;BME280;32678;43.852;25.952;2023-12-20T01:24:06;101360.78;;;5.89;76.90
46944;BME280;32678;43.852;25.952;2023-12-20T01:29:03;101353.81;;;5.98;76.28
46944;BME280;32678;43.852;25.952;2023-12-20T01:33:59;101345.97;;;6.03;75.92
46944;BME280;32678;43.852;25.952;2023-12-20T01:38:56;101327.56;;;6.33;75.37
46944;BME280;32678;43.852;25.952;2023-12-20T01:43:53;101323.06;;;6.55;74.47
46944;BME280;32678;43.852;25.952;2023-12-20T01:48:50;101311.56;;;6.82;73.43
46944;BME280;32678;43.852;25.952;2023-12-20T01:53:47;101290.53;;;7.00;73.09
46944;BME280;32678;43.852;25.952;2023-12-20T01:58:44;101288.66;;;7.14;72.63
46944;BME280;32678;43.852;25.952;2023-12-20T02:03:42;101282.44;;;7.27;72.49
46944;BME280;32678;43.852;25.952;2023-12-20T02:08:40;101284.03;;;7.40;71.84
46944;BME280;32678;43.852;25.952;2023-12-20T02:13:36;101279.03;;;7.21;71.40
46944;BME280;32678;43.852;25.952;2023-12-20T02:18:33;101281.28;;;6.69;73.42
46944;BME280;32678;43.852;25.952;2023-12-20T02:23:30;101280.81;;;6.20;73.48
46944;BME280;32678;43.852;25.952;2023-12-20T02:28:27;101268.06;;;5.63;74.70
46944;BME280;32678;43.852;25.952;2023-12-20T02:33:24;101257.75;;;5.39;75.97
46944;BME280;32678;43.852;25.952;2023-12-20T02:38:21;101246.38;;;5.66;75.76
46944;BME280;32678;43.852;25.952;2023-12-20T02:43:18;101241.81;;;6.09;74.82
46944;BME280;32678;43.852;25.952;2023-12-20T02:48:14;101247.84;;;6.11;73.12
46944;BME280;32678;43.852;25.952;2023-12-20T02:53:11;101236.72;;;5.92;72.96
46944;BME280;32678;43.852;25.952;2023-12-20T02:58:08;101234.06;;;5.98;73.36
46944;BME280;32678;43.852;25.952;2023-12-20T03:03:05;101235.88;;;5.86;73.37
46944;BME280;32678;43.852;25.952;2023-12-20T03:08:02;101232.44;;;5.79;73.19
46944;BME280;32678;43.852;25.952;2023-12-20T03:12:58;101230.78;;;5.64;73.55
46944;BME280;32678;43.852;25.952;2023-12-20T03:17:55;101230.09;;;5.23;75.71
46944;BME280;32678;43.852;25.952;2023-12-20T03:22:52;101224.94;;;5.17;76.40
46944;BME280;32678;43.852;25.952;2023-12-20T03:27:49;101214.38;;;5.47;75.68
46944;BME280;32678;43.852;25.952;2023-12-20T03:32:46;101216.88;;;5.68;74.34
46944;BME280;32678;43.852;25.952;2023-12-20T03:37:43;101194.56;;;5.25;75.10
46944;BME280;32678;43.852;25.952;2023-12-20T03:42:40;101185.91;;;5.21;75.85
46944;BME280;32678;43.852;25.952;2023-12-20T03:47:37;101184.91;;;5.51;74.68
46944;BME280;32678;43.852;25.952;2023-12-20T03:52:34;101172.03;;;5.27;75.02
46944;BME280;32678;43.852;25.952;2023-12-20T03:57:30;101165.03;;;5.38;74.62
46944;BME280;32678;43.852;25.952;2023-12-20T04:02:28;101161.34;;;5.74;73.96
46944;BME280;32678;43.852;25.952;2023-12-20T04:07:24;101163.13;;;5.67;72.53
46944;BME280;32678;43.852;25.952;2023-12-20T04:12:21;101163.25;;;5.46;72.85
46944;BME280;32678;43.852;25.952;2023-12-20T04:17:17;101146.75;;;5.56;72.72
46944;BME280;32678;43.852;25.952;2023-12-20T04:22:14;101150.19;;;5.57;73.03
46944;BME280;32678;43.852;25.952;2023-12-20T04:27:11;101139.81;;;5.55;72.52
46944;BME280;32678;43.852;25.952;2023-12-20T04:32:08;101132.00;;;5.55;72.65
46944;BME280;32678;43.852;25.952;2023-12-20T04:37:04;101132.97;;;5.42;73.17
46944;BME280;32678;43.852;25.952;2023-12-20T04:42:02;101132.97;;;5.36;73.16
46944;BME280;32678;43.852;25.952;2023-12-20T04:46:58;101136.66;;;4.93;74.16
46944;BME280;32678;43.852;25.952;2023-12-20T04:51:55;101128.91;;;4.84;75.37
46944;BME280;32678;43.852;25.952;2023-12-20T04:56:52;101132.28;;;5.02;74.76
46944;BME280;32678;43.852;25.952;2023-12-20T05:01:50;101127.81;;;5.30;73.93
46944;BME280;32678;43.852;25.952;2023-12-20T05:06:46;101123.63;;;5.02;73.36
46944;BME280;32678;43.852;25.952;2023-12-20T05:11:43;101124.56;;;4.86;74.15
46944;BME280;32678;43.852;25.952;2023-12-20T05:16:40;101124.63;;;4.60;75.18
46944;BME280;32678;43.852;25.952;2023-12-20T05:21:37;101123.84;;;4.32;77.20
46944;BME280;32678;43.852;25.952;2023-12-20T05:26:33;101119.50;;;4.20;78.58
46944;BME280;32678;43.852;25.952;2023-12-20T05:31:30;101109.94;;;4.50;78.11
46944;BME280;32678;43.852;25.952;2023-12-20T05:36:27;101103.97;;;4.25;78.33
46944;BME280;32678;43.852;25.952;2023-12-20T05:41:25;101103.97;;;4.17;78.67
46944;BME280;32678;43.852;25.952;2023-12-20T05:46:21;101098.72;;;4.48;77.24
46944;BME280;32678;43.852;25.952;2023-12-20T05:51:18;101105.56;;;4.70;77.09
46944;BME280;32678;43.852;25.952;2023-12-20T05:56:14;101104.66;;;4.83;75.49
46944;BME280;32678;43.852;25.952;2023-12-20T06:01:12;101108.03;;;5.02;75.60
46944;BME280;32678;43.852;25.952;2023-12-20T06:06:10;101109.66;;;5.19;74.97
46944;BME280;32678;43.852;25.952;2023-12-20T06:11:12;101109.63;;;5.24;74.75
46944;BME280;32678;43.852;25.952;2023-12-20T06:16:09;101110.69;;;4.91;75.03
46944;BME280;32678;43.852;25.952;2023-12-20T06:21:06;101113.25;;;4.97;75.18
46944;BME280;32678;43.852;25.952;2023-12-20T06:26:03;101104.28;;;5.51;74.90
46944;BME280;32678;43.852;25.952;2023-12-20T06:31:01;101106.72;;;5.76;73.54
46944;BME280;32678;43.852;25.952;2023-12-20T06:35:57;101105.69;;;5.99;73.12
46944;BME280;32678;43.852;25.952;2023-12-20T06:40:55;101101.97;;;6.23;72.91
46944;BME280;32678;43.852;25.952;2023-12-20T06:46:04;101101.03;;;6.32;71.05
46944;BME280;32678;43.852;25.952;2023-12-20T06:51:01;101091.44;;;6.35;68.87
46944;BME280;32678;43.852;25.952;2023-12-20T06:55:59;101094.00;;;6.40;68.63
46944;BME280;32678;43.852;25.952;2023-12-20T07:00:55;101082.44;;;6.64;68.47
46944;BME280;32678;43.852;25.952;2023-12-20T07:05:52;101076.16;;;6.81;68.62
46944;BME280;32678;43.852;25.952;2023-12-20T07:10:49;101075.22;;;6.85;67.92
46944;BME280;32678;43.852;25.952;2023-12-20T07:15:46;101068.94;;;7.02;67.62
46944;BME280;32678;43.852;25.952;2023-12-20T07:20:42;101074.81;;;6.47;67.70
46944;BME280;32678;43.852;25.952;2023-12-20T07:25:39;101062.34;;;5.95;69.10
46944;BME280;32678;43.852;25.952;2023-12-20T07:30:36;101063.31;;;5.78;69.96
46944;BME280;32678;43.852;25.952;2023-12-20T07:35:33;101057.69;;;5.21;71.51
46944;BME280;32678;43.852;25.952;2023-12-20T07:40:30;101037.56;;;5.43;72.00
46944;BME280;32678;43.852;25.952;2023-12-20T07:45:26;101051.94;;;5.94;71.88
46944;BME280;32678;43.852;25.952;2023-12-20T07:50:23;101036.72;;;6.40;71.31
46944;BME280;32678;43.852;25.952;2023-12-20T07:55:20;101040.59;;;6.77;70.51
46944;BME280;32678;43.852;25.952;2023-12-20T08:00:18;101045.81;;;6.76;68.82
46944;BME280;32678;43.852;25.952;2023-12-20T08:05:15;101042.00;;;7.01;68.90
46944;BME280;32678;43.852;25.952;2023-12-20T08:10:14;101045.53;;;6.97;69.05
46944;BME280;32678;43.852;25.952;2023-12-20T08:15:11;101044.56;;;6.35;71.47
46944;BME280;32678;43.852;25.952;2023-12-20T08:20:08;101037.38;;;6.56;70.78
46944;BME280;32678;43.852;25.952;2023-12-20T08:25:06;101033.38;;;6.26;72.23
46944;BME280;32678;43.852;25.952;2023-12-20T08:30:03;101023.66;;;6.43;72.55
46944;BME280;32678;43.852;25.952;2023-12-20T08:35:01;101002.00;;;6.39;72.25
46944;BME280;32678;43.852;25.952;2023-12-20T08:39:58;100992.28;;;6.50;72.05
46944;BME280;32678;43.852;25.952;2023-12-20T08:44:55;100982.31;;;6.81;71.08
46944;BME280;32678;43.852;25.952;2023-12-20T08:49:52;100974.97;;;6.49;71.99
46944;BME280;32678;43.852;25.952;2023-12-20T08:54:53;100966.97;;;6.62;72.44
46944;BME280;32678;43.852;25.952;2023-12-20T08:59:50;100963.63;;;6.50;72.90
46944;BME280;32678;43.852;25.952;2023-12-20T09:04:46;100949.00;;;6.40;74.35
46944;BME280;32678;43.852;25.952;2023-12-20T09:09:43;100945.97;;;6.74;74.18
46944;BME280;32678;43.852;25.952;2023-12-20T09:14:41;100930.63;;;7.11;73.32
46944;BME280;32678;43.852;25.952;2023-12-20T09:19:40;100919.13;;;7.22;72.16
46944;BME280;32678;43.852;25.952;2023-12-20T09:24:49;100910.97;;;7.42;72.13
46944;BME280;32678;43.852;25.952;2023-12-20T09:29:47;100909.78;;;7.09;72.30
46944;BME280;32678;43.852;25.952;2023-12-20T09:34:46;100899.59;;;6.94;74.21
46944;BME280;32678;43.852;25.952;2023-12-20T09:39:44;100874.13;;;7.11;74.54
46944;BME280;32678;43.852;25.952;2023-12-20T09:44:41;100863.00;;;7.49;73.65
46944;BME280;32678;43.852;25.952;2023-12-20T09:49:41;100842.44;;;7.78;72.64
46944;BME280;32678;43.852;25.952;2023-12-20T09:54:39;100825.66;;;7.90;72.61
46944;BME280;32678;43.852;25.952;2023-12-20T09:59:37;100821.09;;;8.00;72.21
46944;BME280;32678;43.852;25.952;2023-12-20T10:04:34;100821.97;;;8.00;71.85
46944;BME280;32678;43.852;25.952;2023-12-20T10:09:32;100808.19;;;7.94;71.89
46944;BME280;32678;43.852;25.952;2023-12-20T10:14:28;100798.78;;;7.85;72.01
46944;BME280;32678;43.852;25.952;2023-12-20T10:19:25;100783.47;;;8.10;72.02
46944;BME280;32678;43.852;25.952;2023-12-20T10:24:22;100776.06;;;8.28;71.73
46944;BME280;32678;43.852;25.952;2023-12-20T10:29:21;100767.28;;;8.33;71.16
46944;BME280;32678;43.852;25.952;2023-12-20T10:34:24;100760.84;;;8.47;71.04
46944;BME280;32678;43.852;25.952;2023-12-20T10:39:35;100749.53;;;8.47;70.90
46944;BME280;32678;43.852;25.952;2023-12-20T10:44:41;100744.50;;;8.39;71.68
46944;BME280;32678;43.852;25.952;2023-12-20T10:49:40;100723.84;;;8.64;71.07
46944;BME280;32678;43.852;25.952;2023-12-20T10:54:41;100718.09;;;8.84;70.91
46944;BME280;32678;43.852;25.952;2023-12-20T10:59:38;100702.19;;;8.91;70.71
46944;BME280;32678;43.852;25.952;2023-12-20T11:04:37;100702.78;;;9.02;70.71
46944;BME280;32678;43.852;25.952;2023-12-20T11:09:36;100700.88;;;9.07;70.54
46944;BME280;32678;43.852;25.952;2023-12-20T11:14:39;100690.16;;;9.17;70.75
46944;BME280;32678;43.852;25.952;2023-12-20T11:24:56;100679.00;;;9.41;71.19
46944;BME280;32678;43.852;25.952;2023-12-20T11:29:56;100675.31;;;9.48;71.28
46944;BME280;32678;43.852;25.952;2023-12-20T11:34:53;100674.22;;;9.55;71.19
46944;BME280;32678;43.852;25.952;2023-12-20T11:39:54;100670.44;;;9.64;71.65
46944;BME280;32678;43.852;25.952;2023-12-20T11:44:51;100658.97;;;9.68;71.95
46944;BME280;32678;43.852;25.952;2023-12-20T11:49:48;100644.84;;;9.73;71.68
46944;BME280;32678;43.852;25.952;2023-12-20T11:54:45;100625.63;;;9.74;71.40
46944;BME280;32678;43.852;25.952;2023-12-20T11:59:44;100622.00;;;9.78;71.08
46944;BME280;32678;43.852;25.952;2023-12-20T12:04:42;100609.75;;;9.79;70.77
46944;BME280;32678;43.852;25.952;2023-12-20T12:09:39;100591.50;;;9.77;70.45
46944;BME280;32678;43.852;25.952;2023-12-20T12:14:35;100592.44;;;9.75;70.51
46944;BME280;32678;43.852;25.952;2023-12-20T12:19:32;100578.34;;;9.79;70.14
46944;BME280;32678;43.852;25.952;2023-12-20T12:24:33;100572.19;;;9.80;70.00
46944;BME280;32678;43.852;25.952;2023-12-20T12:29:30;100569.59;;;9.80;69.38
46944;BME280;32678;43.852;25.952;2023-12-20T12:34:27;100571.84;;;10.17;67.87
46944;BME280;32678;43.852;25.952;2023-12-20T12:39:24;100579.00;;;9.85;66.82
46944;BME280;32678;43.852;25.952;2023-12-20T12:44:21;100573.97;;;10.06;66.86
46944;BME280;32678;43.852;25.952;2023-12-20T12:49:19;100578.19;;;9.83;67.23
46944;BME280;32678;43.852;25.952;2023-12-20T12:54:17;100572.56;;;9.95;67.63
46944;BME280;32678;43.852;25.952;2023-12-20T12:59:14;100566.81;;;9.84;68.13
46944;BME280;32678;43.852;25.952;2023-12-20T13:04:11;100569.31;;;9.87;68.16
46944;BME280;32678;43.852;25.952;2023-12-20T13:09:08;100559.81;;;9.85;68.70
46944;BME280;32678;43.852;25.952;2023-12-20T13:14:05;100545.66;;;9.90;68.33
46944;BME280;32678;43.852;25.952;2023-12-20T13:19:03;100534.84;;;10.01;68.01
46944;BME280;32678;43.852;25.952;2023-12-20T13:24:07;100544.38;;;10.02;67.50
46944;BME280;32678;43.852;25.952;2023-12-20T13:29:08;100535.56;;;10.05;67.66
46944;BME280;32678;43.852;25.952;2023-12-20T13:34:04;100536.59;;;10.00;67.52
46944;BME280;32678;43.852;25.952;2023-12-20T13:39:01;100541.88;;;9.99;67.67
46944;BME280;32678;43.852;25.952;2023-12-20T13:43:59;100537.53;;;9.98;67.36
46944;BME280;32678;43.852;25.952;2023-12-20T13:48:57;100528.03;;;9.95;67.46
46944;BME280;32678;43.852;25.952;2023-12-20T13:53:54;100527.50;;;9.86;67.88
46944;BME280;32678;43.852;25.952;2023-12-20T13:58:51;100509.53;;;10.00;67.66
46944;BME280;32678;43.852;25.952;2023-12-20T14:03:48;100506.81;;;10.03;67.44
46944;BME280;32678;43.852;25.952;2023-12-20T14:08:46;100508.63;;;9.76;69.13
46944;BME280;32678;43.852;25.952;2023-12-20T14:13:44;100497.16;;;9.79;69.54
46944;BME280;32678;43.852;25.952;2023-12-20T14:18:41;100498.34;;;9.96;68.91
46944;BME280;32678;43.852;25.952;2023-12-20T14:23:38;100498.88;;;9.80;69.96
46944;BME280;32678;43.852;25.952;2023-12-20T14:28:35;100492.28;;;9.94;69.38
46944;BME280;32678;43.852;25.952;2023-12-20T14:33:32;100491.41;;;9.94;69.59
46944;BME280;32678;43.852;25.952;2023-12-20T14:38:28;100488.84;;;9.92;70.02
46944;BME280;32678;43.852;25.952;2023-12-20T14:43:27;100484.16;;;9.77;71.17
46944;BME280;32678;43.852;25.952;2023-12-20T14:48:25;100477.78;;;9.84;70.95
46944;BME280;32678;43.852;25.952;2023-12-20T14:53:23;100461.69;;;9.70;71.79
46944;BME280;32678;43.852;25.952;2023-12-20T14:58:20;100462.63;;;9.43;73.10
46944;BME280;32678;43.852;25.952;2023-12-20T15:03:18;100461.00;;;9.39;73.80
46944;BME280;32678;43.852;25.952;2023-12-20T15:08:16;100463.69;;;9.37;74.61
46944;BME280;32678;43.852;25.952;2023-12-20T15:13:28;100452.16;;;9.43;74.82
46944;BME280;32678;43.852;25.952;2023-12-20T15:18:26;100453.06;;;9.42;75.34
46944;BME280;32678;43.852;25.952;2023-12-20T15:23:26;100447.22;;;9.34;76.64
46944;BME280;32678;43.852;25.952;2023-12-20T15:28:24;100434.44;;;9.25;77.49
46944;BME280;32678;43.852;25.952;2023-12-20T15:33:21;100432.44;;;9.33;77.52
46944;BME280;32678;43.852;25.952;2023-12-20T15:38:19;100441.44;;;9.50;76.70
46944;BME280;32678;43.852;25.952;2023-12-20T15:43:15;100443.88;;;9.55;76.31
46944;BME280;32678;43.852;25.952;2023-12-20T15:48:12;100451.31;;;9.42;75.52
46944;BME280;32678;43.852;25.952;2023-12-20T15:53:13;100464.91;;;9.26;75.92
46944;BME280;32678;43.852;25.952;2023-12-20T15:58:11;100463.31;;;9.22;76.53
46944;BME280;32678;43.852;25.952;2023-12-20T16:03:07;100460.28;;;9.07;77.63
46944;BME280;32678;43.852;25.952;2023-12-20T16:08:21;100453.34;;;9.06;78.66
46944;BME280;32678;43.852;25.952;2023-12-20T16:13:18;100457.56;;;9.10;78.80
46944;BME280;32678;43.852;25.952;2023-12-20T16:18:16;100457.59;;;9.09;79.17
46944;BME280;32678;43.852;25.952;2023-12-20T16:23:12;100455.25;;;9.01;79.51
46944;BME280;32678;43.852;25.952;2023-12-20T16:28:09;100446.53;;;9.01;79.78
46944;BME280;32678;43.852;25.952;2023-12-20T16:33:06;100457.53;;;8.84;80.31
46944;BME280;32678;43.852;25.952;2023-12-20T16:38:03;100456.28;;;8.68;80.83
46944;BME280;32678;43.852;25.952;2023-12-20T16:43:00;100454.38;;;8.73;80.67
46944;BME280;32678;43.852;25.952;2023-12-20T16:47:59;100448.91;;;8.51;82.14
46944;BME280;32678;43.852;25.952;2023-12-20T16:52:56;100437.44;;;8.26;83.63
46944;BME280;32678;43.852;25.952;2023-12-20T16:57:56;100427.59;;;8.36;83.05
46944;BME280;32678;43.852;25.952;2023-12-20T17:02:53;100441.50;;;8.38;82.71
46944;BME280;32678;43.852;25.952;2023-12-20T17:07:49;100440.63;;;8.37;83.24
46944;BME280;32678;43.852;25.952;2023-12-20T17:12:47;100428.50;;;8.04;84.15
46944;BME280;32678;43.852;25.952;2023-12-20T17:17:43;100428.34;;;8.10;83.57
46944;BME280;32678;43.852;25.952;2023-12-20T17:22:42;100422.69;;;8.25;83.69
46944;BME280;32678;43.852;25.952;2023-12-20T17:27:39;100422.63;;;8.26;83.69
46944;BME280;32678;43.852;25.952;2023-12-20T17:32:36;100432.22;;;8.26;82.51
46944;BME280;32678;43.852;25.952;2023-12-20T17:37:33;100433.19;;;8.22;81.55
46944;BME280;32678;43.852;25.952;2023-12-20T17:42:29;100428.47;;;7.73;84.01
46944;BME280;32678;43.852;25.952;2023-12-20T17:47:26;100431.28;;;7.65;84.74
46944;BME280;32678;43.852;25.952;2023-12-20T17:52:23;100438.59;;;7.85;84.16
46944;BME280;32678;43.852;25.952;2023-12-20T17:57:20;100436.47;;;7.99;84.13
46944;BME280;32678;43.852;25.952;2023-12-20T18:02:19;100437.66;;;8.18;82.58
46944;BME280;32678;43.852;25.952;2023-12-20T18:07:15;100438.28;;;8.26;81.69
46944;BME280;32678;43.852;25.952;2023-12-20T18:12:15;100446.44;;;8.16;81.76
46944;BME280;32678;43.852;25.952;2023-12-20T18:17:18;100453.53;;;7.80;83.77
46944;BME280;32678;43.852;25.952;2023-12-20T18:22:15;100450.69;;;7.55;85.67
46944;BME280;32678;43.852;25.952;2023-12-20T18:27:12;100450.31;;;7.69;85.82
46944;BME280;32678;43.852;25.952;2023-12-20T18:32:09;100440.25;;;7.55;85.77
46944;BME280;32678;43.852;25.952;2023-12-20T18:37:05;100447.59;;;7.39;85.14
46944;BME280;32678;43.852;25.952;2023-12-20T18:42:05;100445.75;;;7.43;84.65
46944;BME280;32678;43.852;25.952;2023-12-20T18:47:02;100439.84;;;7.01;86.23
46944;BME280;32678;43.852;25.952;2023-12-20T18:51:59;100432.56;;;6.78;87.85
46944;BME280;32678;43.852;25.952;2023-12-20T18:56:58;100424.66;;;6.83;88.76
46944;BME280;32678;43.852;25.952;2023-12-20T19:01:55;100419.59;;;6.75;88.90
46944;BME280;32678;43.852;25.952;2023-12-20T19:06:52;100421.69;;;6.98;88.70
46944;BME280;32678;43.852;25.952;2023-12-20T19:11:54;100399.50;;;7.17;87.10
46944;BME280;32678;43.852;25.952;2023-12-20T19:16:50;100427.59;;;7.40;86.04
46944;BME280;32678;43.852;25.952;2023-12-20T19:21:47;100436.66;;;7.59;84.97
46944;BME280;32678;43.852;25.952;2023-12-20T19:26:43;100445.44;;;7.21;86.13
46944;BME280;32678;43.852;25.952;2023-12-20T19:31:41;100440.69;;;7.03;86.76
46944;BME280;32678;43.852;25.952;2023-12-20T19:36:37;100442.13;;;6.78;88.00
46944;BME280;32678;43.852;25.952;2023-12-20T19:41:34;100436.50;;;6.96;87.53
46944;BME280;32678;43.852;25.952;2023-12-20T19:46:31;100430.03;;;7.12;86.53
46944;BME280;32678;43.852;25.952;2023-12-20T19:51:28;100432.91;;;7.00;86.93
46944;BME280;32678;43.852;25.952;2023-12-20T19:56:25;100436.41;;;6.99;87.12
46944;BME280;32678;43.852;25.952;2023-12-20T20:01:21;100425.16;;;6.99;86.66
46944;BME280;32678;43.852;25.952;2023-12-20T20:06:18;100424.81;;;6.75;88.34
46944;BME280;32678;43.852;25.952;2023-12-20T20:11:15;100428.09;;;6.45;89.82
46944;BME280;32678;43.852;25.952;2023-12-20T20:16:28;100436.47;;;6.59;90.02
46944;BME280;32678;43.852;25.952;2023-12-20T20:21:26;100423.13;;;6.33;90.76
46944;BME280;32678;43.852;25.952;2023-12-20T20:26:23;100421.41;;;6.33;91.31
46944;BME280;32678;43.852;25.952;2023-12-20T20:31:20;100420.34;;;6.42;90.61
46944;BME280;32678;43.852;25.952;2023-12-20T20:36:16;100417.59;;;6.49;90.12
46944;BME280;32678;43.852;25.952;2023-12-20T20:41:13;100414.06;;;6.50;90.24
46944;BME280;32678;43.852;25.952;2023-12-20T20:46:10;100413.38;;;6.44;89.26
46944;BME280;32678;43.852;25.952;2023-12-20T20:51:07;100418.66;;;6.39;89.80
46944;BME280;32678;43.852;25.952;2023-12-20T20:56:04;100408.25;;;6.39;89.21
46944;BME280;32678;43.852;25.952;2023-12-20T21:01:01;100414.56;;;6.28;89.09
46944;BME280;32678;43.852;25.952;2023-12-20T21:05:58;100407.28;;;6.45;88.84
46944;BME280;32678;43.852;25.952;2023-12-20T21:10:55;100409.91;;;6.42;88.63
46944;BME280;32678;43.852;25.952;2023-12-20T21:15:54;100408.19;;;6.41;88.03
46944;BME280;32678;43.852;25.952;2023-12-20T21:20:51;100408.19;;;6.41;87.68
46944;BME280;32678;43.852;25.952;2023-12-20T21:25:50;100415.03;;;6.46;87.46
46944;BME280;32678;43.852;25.952;2023-12-20T21:30:47;100407.06;;;6.54;86.72
46944;BME280;32678;43.852;25.952;2023-12-20T21:35:43;100391.88;;;6.34;87.08
46944;BME280;32678;43.852;25.952;2023-12-20T21:40:40;100387.53;;;6.35;87.13
46944;BME280;32678;43.852;25.952;2023-12-20T21:45:37;100395.56;;;6.24;87.64
46944;BME280;32678;43.852;25.952;2023-12-20T21:50:33;100402.84;;;6.48;87.10
46944;BME280;32678;43.852;25.952;2023-12-20T21:55:32;100395.03;;;6.48;86.27
46944;BME280;32678;43.852;25.952;2023-12-20T22:00:28;100394.03;;;6.14;87.52
46944;BME280;32678;43.852;25.952;2023-12-20T22:05:26;100403.50;;;6.17;87.40
46944;BME280;32678;43.852;25.952;2023-12-20T22:10:22;100379.47;;;6.05;88.12
46944;BME280;32678;43.852;25.952;2023-12-20T22:15:19;100362.94;;;6.06;87.44
46944;BME280;32678;43.852;25.952;2023-12-20T22:20:16;100350.66;;;6.15;86.66
46944;BME280;32678;43.852;25.952;2023-12-20T22:25:14;100356.16;;;6.01;86.57
46944;BME280;32678;43.852;25.952;2023-12-20T22:30:11;100353.84;;;6.26;85.11
46944;BME280;32678;43.852;25.952;2023-12-20T22:35:08;100354.88;;;6.19;84.38
46944;BME280;32678;43.852;25.952;2023-12-20T22:40:05;100361.66;;;5.83;85.33
46944;BME280;32678;43.852;25.952;2023-12-20T22:45:03;100359.44;;;5.64;86.45
46944;BME280;32678;43.852;25.952;2023-12-20T22:50:00;100362.81;;;5.70;86.56
46944;BME280;32678;43.852;25.952;2023-12-20T22:54:57;100357.44;;;5.77;87.27
46944;BME280;32678;43.852;25.952;2023-12-20T22:59:54;100349.78;;;6.14;86.00
46944;BME280;32678;43.852;25.952;2023-12-20T23:04:51;100336.00;;;6.09;85.15
46944;BME280;32678;43.852;25.952;2023-12-20T23:09:48;100325.13;;;5.90;86.07
46944;BME280;32678;43.852;25.952;2023-12-20T23:14:45;100326.94;;;5.87;86.01
46944;BME280;32678;43.852;25.952;2023-12-20T23:19:41;100320.34;;;5.69;87.47
46944;BME280;32678;43.852;25.952;2023-12-20T23:24:39;100308.28;;;6.06;85.86
46944;BME280;32678;43.852;25.952;2023-12-20T23:29:36;100304.91;;;6.03;86.36
46944;BME280;32678;43.852;25.952;2023-12-20T23:34:33;100309.91;;;6.12;86.14
46944;BME280;32678;43.852;25.952;2023-12-20T23:39:29;100308.38;;;6.40;84.18
46944;BME280;32678;43.852;25.952;2023-12-20T23:44:26;100306.19;;;6.24;84.82
46944;BME280;32678;43.852;25.952;2023-12-20T23:49:23;100317.41;;;5.84;86.11
46944;BME280;32678;43.852;25.952;2023-12-20T23:54:20;100310.44;;;5.86;86.31
46944;BME280;32678;43.852;25.952;2023-12-20T23:59:16;100322.59;;;5.86;86.09
